createdAt,value
2019-02-09T00:01:04.345Z,6.17
2019-02-09T00:02:52.653Z,6.11
2019-02-09T00:03:49.610Z,6.14
2019-02-09T00:04:49.637Z,6.14
2019-02-09T00:05:49.711Z,6.08
2019-02-09T00:07:50.871Z,6.21
2019-02-09T00:08:49.538Z,6.11
2019-02-09T00:09:49.593Z,6.11
2019-02-09T00:11:50.701Z,6.27
2019-02-09T00:12:53.617Z,6.09
2019-02-09T00:13:49.530Z,6.17
2019-02-09T00:15:50.908Z,6.11
2019-02-09T00:16:49.484Z,6.30
2019-02-09T00:17:49.497Z,6.09
2019-02-09T00:18:49.429Z,6.21
2019-02-09T00:20:50.683Z,6.08
2019-02-09T00:21:49.470Z,6.08
2019-02-09T00:22:49.426Z,6.22
2019-02-09T00:23:49.375Z,6.17
2019-02-09T00:24:49.390Z,6.14
2019-02-09T00:25:49.497Z,6.11
2019-02-09T00:26:49.373Z,6.21
2019-02-09T00:27:49.347Z,6.08
2019-02-09T00:28:49.338Z,6.06
2019-02-09T00:29:49.374Z,6.25
2019-02-09T00:30:49.366Z,6.28
2019-02-09T00:31:54.700Z,6.19
2019-02-09T00:33:51.001Z,6.25
2019-02-09T00:34:49.350Z,6.06
2019-02-09T00:36:50.594Z,6.15
2019-02-09T00:37:53.285Z,6.31
2019-02-09T00:38:49.301Z,6.11
2019-02-09T00:39:49.195Z,6.12
2019-02-09T00:40:49.257Z,6.25
2019-02-09T00:43:50.358Z,6.14
2019-02-09T00:44:49.177Z,6.30
2019-02-09T00:46:50.353Z,6.21
2019-02-09T00:47:49.199Z,6.21
2019-02-09T00:49:50.373Z,6.19
2019-02-09T00:51:50.817Z,6.27
2019-02-09T00:52:51.192Z,6.27
2019-02-09T00:53:49.080Z,6.15
2019-02-09T00:55:10.063Z,6.22
2019-02-09T00:55:49.056Z,6.25
2019-02-09T00:56:52.741Z,6.21
2019-02-09T00:58:50.021Z,6.21
2019-02-09T00:59:54.065Z,6.27
2019-02-09T01:02:50.126Z,6.27
2019-02-09T01:03:49.015Z,6.19
2019-02-09T01:04:49.037Z,6.27
2019-02-09T01:05:49.969Z,6.30
2019-02-09T01:06:48.956Z,6.18
2019-02-09T01:07:48.967Z,6.21
2019-02-09T01:08:53.002Z,6.33
2019-02-09T01:09:48.953Z,6.28
2019-02-09T01:10:50.990Z,6.27
2019-02-09T01:13:50.508Z,6.31
2019-02-09T01:14:48.839Z,6.25
2019-02-09T01:16:50.108Z,6.21
2019-02-09T01:17:48.827Z,6.21
2019-02-09T01:18:48.814Z,6.22
2019-02-09T01:19:48.769Z,6.21
2019-02-09T01:20:48.762Z,6.25
2019-02-09T01:21:48.811Z,6.25
2019-02-09T01:22:48.894Z,6.14
2019-02-09T01:24:49.959Z,6.19
2019-02-09T01:25:48.765Z,6.15
2019-02-09T01:26:48.711Z,6.22
2019-02-09T01:27:51.682Z,6.31
2019-02-09T01:28:50.770Z,6.27
2019-02-09T01:29:48.775Z,6.25
2019-02-09T01:30:48.754Z,6.30
2019-02-09T01:31:50.697Z,6.11
2019-02-09T01:32:50.792Z,6.11
2019-02-09T01:33:48.699Z,6.12
2019-02-09T01:34:48.662Z,6.11
2019-02-09T01:36:49.809Z,6.19
2019-02-09T01:37:50.557Z,6.18
2019-02-09T01:38:48.608Z,6.14
2019-02-09T01:39:48.630Z,6.17
2019-02-09T01:40:52.681Z,6.15
2019-02-09T01:41:50.606Z,6.17
2019-02-09T01:42:51.169Z,6.12
2019-02-09T01:43:48.568Z,6.14
2019-02-09T01:45:50.013Z,6.09
2019-02-09T01:47:09.716Z,6.12
2019-02-09T01:48:11.600Z,6.03
2019-02-09T01:49:09.585Z,6.04
2019-02-09T01:50:09.516Z,6.09
2019-02-09T01:53:01.191Z,6.08
2019-02-09T01:55:02.182Z,6.09
2019-02-09T01:56:01.151Z,6.08
2019-02-09T01:57:01.312Z,6.11
2019-02-09T01:59:02.120Z,6.08
2019-02-09T02:00:01.157Z,6.00
2019-02-09T02:02:23.132Z,6.00
2019-02-09T02:03:24.136Z,5.94
2019-02-09T02:04:22.082Z,5.93
2019-02-09T02:05:22.147Z,5.94
2019-02-09T02:06:24.156Z,5.94
2019-02-09T02:07:22.060Z,5.94
2019-02-09T02:08:22.127Z,6.00
2019-02-09T02:09:22.080Z,6.00
2019-02-09T02:10:22.075Z,6.03
2019-02-09T02:11:01.093Z,6.03
2019-02-09T02:12:01.056Z,5.99
2019-02-09T02:13:01.049Z,6.04
2019-02-09T02:14:04.739Z,6.06
2019-02-09T02:15:01.030Z,6.03
2019-02-09T02:16:01.027Z,5.94
2019-02-09T02:17:02.974Z,5.99
2019-02-09T02:18:00.926Z,6.00
2019-02-09T02:19:00.995Z,6.00
2019-02-09T02:20:01.000Z,5.97
2019-02-09T02:21:00.960Z,5.96
2019-02-09T02:22:00.947Z,6.11
2019-02-09T02:23:02.939Z,6.01
2019-02-09T02:24:02.831Z,6.08
2019-02-09T02:25:01.938Z,6.01
2019-02-09T02:26:04.977Z,6.01
2019-02-09T02:27:00.845Z,6.04
2019-02-09T02:28:02.964Z,6.08
2019-02-09T02:29:02.717Z,6.08
2019-02-09T02:32:02.554Z,6.00
2019-02-09T02:33:00.850Z,6.00
2019-02-09T02:34:04.714Z,6.06
2019-02-09T02:35:00.737Z,6.03
2019-02-09T02:36:00.742Z,5.90
2019-02-09T02:37:02.843Z,5.99
2019-02-09T02:38:00.763Z,6.09
2019-02-09T02:39:00.891Z,6.08
2019-02-09T02:40:00.688Z,5.97
2019-02-09T02:41:00.681Z,6.03
2019-02-09T02:42:00.730Z,6.08
2019-02-09T02:44:03.645Z,6.04
2019-02-09T02:45:00.642Z,6.11
2019-02-09T02:46:04.717Z,6.04
2019-02-09T02:47:00.618Z,6.03
2019-02-09T02:48:00.622Z,6.12
2019-02-09T02:49:00.603Z,6.06
2019-02-09T02:50:00.618Z,6.12
2019-02-09T02:51:00.607Z,6.17
2019-02-09T02:52:00.645Z,6.15
2019-02-09T02:53:00.558Z,6.18
2019-02-09T02:54:00.558Z,6.18
2019-02-09T02:55:00.548Z,6.21
2019-02-09T02:56:02.573Z,6.17
2019-02-09T02:57:00.584Z,6.21
2019-02-09T02:58:00.602Z,6.19
2019-02-09T02:59:00.578Z,6.14
2019-02-09T03:00:00.602Z,6.12
2019-02-09T03:01:00.499Z,6.12
2019-02-09T03:02:00.460Z,6.19
2019-02-09T03:03:00.531Z,6.09
2019-02-09T03:04:00.508Z,6.11
2019-02-09T03:05:03.241Z,6.12
2019-02-09T03:06:00.414Z,6.22
2019-02-09T03:07:00.452Z,6.19
2019-02-09T03:08:00.475Z,6.22
2019-02-09T03:09:00.402Z,6.25
2019-02-09T03:10:00.517Z,6.14
2019-02-09T03:11:00.416Z,6.15
2019-02-09T03:12:00.470Z,6.27
2019-02-09T03:13:00.397Z,6.25
2019-02-09T03:14:00.407Z,6.31
2019-02-09T03:16:02.058Z,6.21
2019-02-09T03:17:00.357Z,6.18
2019-02-09T03:18:02.358Z,6.27
2019-02-09T03:19:00.350Z,6.25
2019-02-09T03:21:01.520Z,6.18
2019-02-09T03:22:00.314Z,6.25
2019-02-09T03:23:00.253Z,6.22
2019-02-09T03:24:09.116Z,6.30
2019-02-09T03:25:00.294Z,6.28
2019-02-09T03:26:00.184Z,6.30
2019-02-09T03:27:02.196Z,6.31
2019-02-09T03:28:09.165Z,6.28
2019-02-09T03:29:00.167Z,6.34
2019-02-09T03:30:00.241Z,6.37
2019-02-09T03:31:00.200Z,6.36
2019-02-09T03:32:00.205Z,6.33
2019-02-09T03:33:00.121Z,6.33
2019-02-09T03:34:00.108Z,6.36
2019-02-09T03:35:00.175Z,6.33
2019-02-09T03:36:00.108Z,6.30
2019-02-09T03:37:00.155Z,6.30
2019-02-09T03:38:00.127Z,6.38
2019-02-09T03:39:00.103Z,6.46
2019-02-09T03:40:02.142Z,6.49
2019-02-09T03:41:00.206Z,6.44
2019-02-09T03:42:00.108Z,6.49
2019-02-09T03:43:00.083Z,6.46
2019-02-09T03:45:01.235Z,6.48
2019-02-09T03:46:00.035Z,6.48
2019-02-09T03:47:00.086Z,6.43
2019-02-09T03:49:01.163Z,6.48
2019-02-09T03:49:59.930Z,6.51
2019-02-09T03:50:59.962Z,6.58
2019-02-09T03:52:02.037Z,6.56
2019-02-09T03:52:59.897Z,6.54
2019-02-09T03:53:59.966Z,6.54
2019-02-09T03:54:59.950Z,6.55
2019-02-09T03:56:01.796Z,6.44
2019-02-09T03:58:01.116Z,6.56
2019-02-09T03:58:59.843Z,6.56
2019-02-09T04:00:01.912Z,6.58
2019-02-09T04:00:59.928Z,6.64
2019-02-09T04:01:59.820Z,6.55
2019-02-09T04:02:59.817Z,6.67
2019-02-09T04:03:59.807Z,6.69
2019-02-09T04:04:59.788Z,6.64
2019-02-09T04:05:59.795Z,6.62
2019-02-09T04:07:01.840Z,6.55
2019-02-09T04:07:59.810Z,6.62
2019-02-09T04:08:59.792Z,6.66
2019-02-09T04:09:59.805Z,6.73
2019-02-09T04:10:59.758Z,6.71
2019-02-09T04:11:59.766Z,6.74
2019-02-09T04:13:01.783Z,6.69
2019-02-09T04:15:00.998Z,6.76
2019-02-09T04:15:59.705Z,6.80
2019-02-09T04:16:59.703Z,6.74
2019-02-09T04:17:59.712Z,6.84
2019-02-09T04:18:59.638Z,6.79
2019-02-09T04:19:59.618Z,6.80
2019-02-09T04:20:59.636Z,6.70
2019-02-09T04:21:59.707Z,6.81
2019-02-09T04:23:01.660Z,6.80
2019-02-09T04:23:59.574Z,6.80
2019-02-09T04:24:59.564Z,6.77
2019-02-09T04:25:59.627Z,6.84
2019-02-09T04:27:01.262Z,6.91
2019-02-09T04:27:59.636Z,6.81
2019-02-09T04:29:03.577Z,6.92
2019-02-09T04:29:59.502Z,6.84
2019-02-09T04:31:05.914Z,6.91
2019-02-09T04:33:00.749Z,6.92
2019-02-09T04:33:59.463Z,6.95
2019-02-09T04:34:59.459Z,6.95
2019-02-09T04:35:59.437Z,6.98
2019-02-09T04:39:00.700Z,6.98
2019-02-09T04:40:20.450Z,6.99
2019-02-09T04:41:20.556Z,6.94
2019-02-09T04:42:20.386Z,6.99
2019-02-09T04:44:00.571Z,6.99
2019-02-09T04:44:59.351Z,7.07
2019-02-09T04:47:09.456Z,7.09
2019-02-09T04:48:09.404Z,6.98
2019-02-09T04:49:11.429Z,7.07
2019-02-09T04:50:09.382Z,7.07
2019-02-09T04:51:09.422Z,7.09
2019-02-09T04:52:15.580Z,7.02
2019-02-09T04:53:09.592Z,7.07
2019-02-09T04:54:09.412Z,7.06
2019-02-09T04:55:09.402Z,7.02
2019-02-09T04:58:31.427Z,7.05
2019-02-09T04:59:30.364Z,7.12
2019-02-09T05:00:09.284Z,7.10
2019-02-09T05:01:14.140Z,7.09
2019-02-09T05:02:09.300Z,7.06
2019-02-09T05:03:09.276Z,7.15
2019-02-09T05:04:09.258Z,7.12
2019-02-09T05:05:11.268Z,7.21
2019-02-09T05:06:09.305Z,7.20
2019-02-09T05:07:09.260Z,7.15
2019-02-09T05:08:09.194Z,7.16
2019-02-09T05:09:09.236Z,7.15
2019-02-09T05:10:09.204Z,7.12
2019-02-09T05:11:25.540Z,7.21
2019-02-09T05:12:09.358Z,7.13
2019-02-09T05:13:09.161Z,7.13
2019-02-09T05:14:09.144Z,7.13
2019-02-09T05:15:09.189Z,7.27
2019-02-09T05:16:09.104Z,7.10
2019-02-09T05:17:09.368Z,7.17
2019-02-09T05:18:17.456Z,7.13
2019-02-09T05:19:09.086Z,7.21
2019-02-09T05:20:09.181Z,7.13
2019-02-09T05:22:10.782Z,7.31
2019-02-09T05:23:30.040Z,7.17
2019-02-09T05:24:30.040Z,7.28
2019-02-09T05:25:09.043Z,7.28
2019-02-09T05:26:09.080Z,7.30
2019-02-09T05:28:12.054Z,7.28
2019-02-09T05:29:11.009Z,7.24
2019-02-09T05:30:09.954Z,7.31
2019-02-09T05:31:08.950Z,7.30
2019-02-09T05:32:09.051Z,7.32
2019-02-09T05:33:12.550Z,7.28
2019-02-09T05:35:11.943Z,7.30
2019-02-09T05:36:08.980Z,7.34
2019-02-09T05:37:10.977Z,7.34
2019-02-09T05:39:12.795Z,7.27
2019-02-09T05:40:08.859Z,7.27
2019-02-09T05:41:08.900Z,7.28
2019-02-09T05:42:17.837Z,7.16
2019-02-09T05:43:10.911Z,7.28
2019-02-09T05:44:08.852Z,7.13
2019-02-09T05:45:08.804Z,7.10
2019-02-09T05:46:08.892Z,7.17
2019-02-09T05:47:08.770Z,7.10
2019-02-09T05:48:08.797Z,7.06
2019-02-09T05:49:08.795Z,7.07
2019-02-09T05:50:08.787Z,6.97
2019-02-09T05:51:08.749Z,6.91
2019-02-09T05:53:10.033Z,6.89
2019-02-09T05:54:08.820Z,6.85
2019-02-09T05:55:08.760Z,6.88
2019-02-09T05:56:08.743Z,6.77
2019-02-09T05:57:08.754Z,6.79
2019-02-09T05:58:08.709Z,6.76
2019-02-09T05:59:08.752Z,6.70
2019-02-09T06:00:08.739Z,6.74
2019-02-09T06:01:08.695Z,6.84
2019-02-09T06:02:08.617Z,6.79
2019-02-09T06:03:08.745Z,6.77
2019-02-09T06:04:08.594Z,6.76
2019-02-09T06:05:08.568Z,6.73
2019-02-09T06:06:08.617Z,6.76
2019-02-09T06:07:08.614Z,6.70
2019-02-09T06:08:10.441Z,6.81
2019-02-09T06:09:08.545Z,6.81
2019-02-09T06:10:08.535Z,6.80
2019-02-09T06:11:08.607Z,6.69
2019-02-09T06:12:09.571Z,6.84
2019-02-09T06:13:08.521Z,6.74
2019-02-09T06:15:09.696Z,6.79
2019-02-09T06:16:08.465Z,6.58
2019-02-09T06:17:08.490Z,6.64
2019-02-09T06:18:08.444Z,6.54
2019-02-09T06:19:08.468Z,6.48
2019-02-09T06:20:08.413Z,6.41
2019-02-09T06:21:08.421Z,6.30
2019-02-09T06:22:08.412Z,6.21
2019-02-09T06:23:08.385Z,6.17
2019-02-09T06:24:10.464Z,6.12
2019-02-09T06:25:08.384Z,6.11
2019-02-09T06:26:08.359Z,6.12
2019-02-09T06:28:09.548Z,6.08
2019-02-09T06:29:29.343Z,5.99
2019-02-09T06:30:29.334Z,5.90
2019-02-09T06:31:08.305Z,6.00
2019-02-09T06:32:08.293Z,5.97
2019-02-09T06:33:08.277Z,5.91
2019-02-09T06:34:08.342Z,5.94
2019-02-09T06:36:09.436Z,5.93
2019-02-09T06:37:08.237Z,5.96
2019-02-09T06:38:09.245Z,5.86
2019-02-09T06:39:08.257Z,6.00
2019-02-09T06:40:08.219Z,5.91
2019-02-09T06:41:10.193Z,5.85
2019-02-09T06:42:08.197Z,5.83
2019-02-09T06:43:10.171Z,5.91
2019-02-09T06:44:10.203Z,5.90
2019-02-09T06:45:08.155Z,5.90
2019-02-09T06:46:10.200Z,5.97
2019-02-09T06:48:09.357Z,5.90
2019-02-09T06:49:08.114Z,5.90
2019-02-09T06:50:08.169Z,5.94
2019-02-09T06:51:10.104Z,5.94
2019-02-09T06:52:08.071Z,5.89
2019-02-09T06:54:09.279Z,5.93
2019-02-09T06:55:08.040Z,6.03
2019-02-09T06:56:10.066Z,6.12
2019-02-09T06:57:08.017Z,6.04
2019-02-09T06:58:08.040Z,6.00
2019-02-09T06:59:10.109Z,6.06
2019-02-09T07:00:08.049Z,6.06
2019-02-09T07:01:10.045Z,6.06
2019-02-09T07:02:07.988Z,6.06
2019-02-09T07:04:09.136Z,6.17
2019-02-09T07:05:07.948Z,6.17
2019-02-09T07:06:07.958Z,6.14
2019-02-09T07:07:07.919Z,6.17
2019-02-09T07:08:07.931Z,6.28
2019-02-09T07:09:07.908Z,6.15
2019-02-09T07:10:07.908Z,6.25
2019-02-09T07:11:07.943Z,6.21
2019-02-09T07:12:07.863Z,6.14
2019-02-09T07:13:09.879Z,6.12
2019-02-09T07:14:07.841Z,6.18
2019-02-09T07:15:07.881Z,6.12
2019-02-09T07:16:07.835Z,6.17
2019-02-09T07:17:07.803Z,6.14
2019-02-09T07:18:07.854Z,6.21
2019-02-09T07:19:07.819Z,6.15
2019-02-09T07:20:07.806Z,6.19
2019-02-09T07:21:07.811Z,6.12
2019-02-09T07:22:07.823Z,6.19
2019-02-09T07:23:07.825Z,6.14
2019-02-09T07:24:07.796Z,6.21
2019-02-09T07:25:10.398Z,6.18
2019-02-09T07:26:07.769Z,6.15
2019-02-09T07:27:07.787Z,6.03
2019-02-09T07:28:07.709Z,6.08
2019-02-09T07:29:07.693Z,6.03
2019-02-09T07:30:07.675Z,6.01
2019-02-09T07:31:07.662Z,5.94
2019-02-09T07:32:07.673Z,5.99
2019-02-09T07:33:07.678Z,5.91
2019-02-09T07:34:07.625Z,5.94
2019-02-09T07:35:07.631Z,5.99
2019-02-09T07:36:07.640Z,5.90
2019-02-09T07:37:07.597Z,5.96
2019-02-09T07:38:09.592Z,5.91
2019-02-09T07:39:07.623Z,5.90
2019-02-09T07:40:07.595Z,5.78
2019-02-09T07:41:07.541Z,5.81
2019-02-09T07:42:07.541Z,5.79
2019-02-09T07:43:07.537Z,5.83
2019-02-09T07:44:07.543Z,5.76
2019-02-09T07:45:07.535Z,5.81
2019-02-09T07:46:09.661Z,5.78
2019-02-09T07:47:07.510Z,5.79
2019-02-09T07:48:07.481Z,5.76
2019-02-09T07:49:07.465Z,5.82
2019-02-09T07:50:07.483Z,5.82
2019-02-09T07:51:07.459Z,5.93
2019-02-09T07:52:07.475Z,5.93
2019-02-09T07:53:07.481Z,5.93
2019-02-09T07:54:07.485Z,5.89
2019-02-09T07:55:07.413Z,5.99
2019-02-09T07:56:07.499Z,5.93
2019-02-09T07:57:09.426Z,5.96
2019-02-09T07:58:09.429Z,5.94
2019-02-09T07:59:07.425Z,5.93
2019-02-09T08:00:09.422Z,5.96
2019-02-09T08:01:07.463Z,6.01
2019-02-09T08:02:07.314Z,5.99
2019-02-09T08:03:07.313Z,6.03
2019-02-09T08:04:07.329Z,5.97
2019-02-09T08:06:08.556Z,6.12
2019-02-09T08:07:07.301Z,6.09
2019-02-09T08:08:07.253Z,6.03
2019-02-09T08:09:07.284Z,6.03
2019-02-09T08:10:07.255Z,6.06
2019-02-09T08:11:11.013Z,6.03
2019-02-09T08:12:07.229Z,5.96
2019-02-09T08:13:07.206Z,6.00
2019-02-09T08:14:09.232Z,6.01
2019-02-09T08:15:07.188Z,5.89
2019-02-09T08:17:08.388Z,6.03
2019-02-09T08:18:07.156Z,6.17
2019-02-09T08:19:07.170Z,6.21
2019-02-09T08:20:07.128Z,6.14
2019-02-09T08:21:07.157Z,6.25
2019-02-09T08:22:07.112Z,6.31
2019-02-09T08:23:07.108Z,6.18
2019-02-09T08:24:07.448Z,6.34
2019-02-09T08:25:07.068Z,6.40
2019-02-09T08:26:07.125Z,6.43
2019-02-09T08:27:07.407Z,6.54
2019-02-09T08:28:07.047Z,6.56
2019-02-09T08:29:09.078Z,6.54
2019-02-09T08:31:08.267Z,6.52
2019-02-09T08:32:12.599Z,6.52
2019-02-09T08:33:07.994Z,6.55
2019-02-09T08:34:06.969Z,6.51
2019-02-09T08:35:06.976Z,6.59
2019-02-09T08:36:06.986Z,6.64
2019-02-09T08:37:06.961Z,6.69
2019-02-09T08:38:06.957Z,6.79
2019-02-09T08:39:06.926Z,6.71
2019-02-09T08:41:08.152Z,6.69
2019-02-09T08:42:06.936Z,6.70
2019-02-09T08:43:06.869Z,6.64
2019-02-09T08:44:06.871Z,6.62
2019-02-09T08:45:06.844Z,6.71
2019-02-09T08:46:06.842Z,6.69
2019-02-09T08:47:06.860Z,6.71
2019-02-09T08:48:06.817Z,6.73
2019-02-09T08:49:06.817Z,6.74
2019-02-09T08:50:06.793Z,6.77
2019-02-09T08:51:06.773Z,6.73
2019-02-09T08:52:06.788Z,6.79
2019-02-09T08:53:06.776Z,6.77
2019-02-09T08:54:06.761Z,6.89
2019-02-09T08:55:06.771Z,6.80
2019-02-09T08:57:07.841Z,6.97
2019-02-09T08:58:06.717Z,7.10
2019-02-09T08:59:06.697Z,7.07
2019-02-09T09:00:06.693Z,7.16
2019-02-09T09:01:06.713Z,7.12
2019-02-09T09:02:06.691Z,7.12
2019-02-09T09:03:06.685Z,7.15
2019-02-09T09:04:06.669Z,7.16
2019-02-09T09:05:09.857Z,7.20
2019-02-09T09:06:06.619Z,7.09
2019-02-09T09:07:08.653Z,7.16
2019-02-09T09:08:08.451Z,7.16
2019-02-09T09:09:06.597Z,7.32
2019-02-09T09:10:06.604Z,7.30
2019-02-09T09:11:06.575Z,7.34
2019-02-09T09:12:06.753Z,7.32
2019-02-09T09:13:07.798Z,7.40
2019-02-09T09:14:06.579Z,7.53
2019-02-09T09:15:06.529Z,7.49
2019-02-09T09:16:06.523Z,7.67
2019-02-09T09:17:06.516Z,7.69
2019-02-09T09:18:06.527Z,7.71
2019-02-09T09:19:06.480Z,7.74
2019-02-09T09:20:06.470Z,7.80
2019-02-09T09:21:06.482Z,7.83
2019-02-09T09:22:06.470Z,7.92
2019-02-09T09:23:09.459Z,7.98
2019-02-09T09:24:06.487Z,8.05
2019-02-09T09:25:09.356Z,8.10
2019-02-09T09:26:06.481Z,8.18
2019-02-09T09:27:06.454Z,8.12
2019-02-09T09:30:07.598Z,8.36
2019-02-09T09:31:06.441Z,8.36
2019-02-09T09:32:10.428Z,8.34
2019-02-09T09:33:08.505Z,8.41
2019-02-09T09:34:07.386Z,8.50
2019-02-09T09:35:09.409Z,8.52
2019-02-09T09:38:07.848Z,8.71
2019-02-09T09:39:06.332Z,8.71
2019-02-09T09:41:07.562Z,8.91
2019-02-09T09:42:06.242Z,8.83
2019-02-09T09:43:08.430Z,8.80
2019-02-09T09:44:32.303Z,8.73
2019-02-09T09:45:06.275Z,8.79
2019-02-09T09:46:10.331Z,8.86
2019-02-09T09:47:30.275Z,8.81
2019-02-09T09:48:10.972Z,8.80
2019-02-09T09:49:09.244Z,8.83
2019-02-09T09:50:08.151Z,8.80
2019-02-09T09:52:33.537Z,8.79
2019-02-09T09:53:33.576Z,8.77
2019-02-09T09:54:33.626Z,8.95
2019-02-09T09:57:25.304Z,9.11
2019-02-09T09:58:25.286Z,9.17
2019-02-09T09:59:25.202Z,9.15
2019-02-09T10:00:25.298Z,9.10
2019-02-09T10:02:26.288Z,9.11
2019-02-09T10:03:27.219Z,9.08
2019-02-09T10:04:30.380Z,9.08
2019-02-09T10:05:42.567Z,9.05
2019-02-09T10:06:25.138Z,9.10
2019-02-09T10:07:25.154Z,9.08
2019-02-09T10:08:27.176Z,9.14
2019-02-09T10:09:25.387Z,9.17
2019-02-09T10:11:58.301Z,9.15
2019-02-09T10:13:13.024Z,9.23
2019-02-09T10:14:44.865Z,9.17
2019-02-09T10:14:56.483Z,9.18
2019-02-09T10:15:57.478Z,9.28
2019-02-09T10:16:55.356Z,9.21
2019-02-09T10:19:06.944Z,9.29
2019-02-09T10:20:06.812Z,9.32
2019-02-09T10:23:25.575Z,9.39
2019-02-09T10:24:23.628Z,9.40
2019-02-09T10:25:23.520Z,9.51
2019-02-09T10:26:25.516Z,9.51
2019-02-09T10:29:24.756Z,9.56
2019-02-09T10:30:23.400Z,9.48
2019-02-09T10:31:23.425Z,9.64
2019-02-09T10:32:23.424Z,9.61
2019-02-09T10:33:23.470Z,9.68
2019-02-09T10:34:23.380Z,9.64
2019-02-09T10:35:23.380Z,9.74
2019-02-09T10:36:23.387Z,9.78
2019-02-09T10:37:23.350Z,9.78
2019-02-09T10:38:23.306Z,9.79
2019-02-09T10:39:23.353Z,9.75
2019-02-09T10:40:23.372Z,9.83
2019-02-09T10:41:25.368Z,9.93
2019-02-09T10:42:26.340Z,9.78
2019-02-09T10:44:24.387Z,9.84
2019-02-09T10:45:44.304Z,9.99
2019-02-09T10:46:23.302Z,10.01
2019-02-09T10:47:23.308Z,10.01
2019-02-09T10:49:24.265Z,10.17
2019-02-09T10:51:24.287Z,10.20
2019-02-09T10:52:23.154Z,10.40
2019-02-09T10:53:23.172Z,10.45
2019-02-09T10:54:23.195Z,10.42
2019-02-09T10:55:23.290Z,10.42
2019-02-09T10:56:23.173Z,10.40
2019-02-09T10:57:25.237Z,10.44
2019-02-09T10:58:23.416Z,10.42
2019-02-09T10:59:23.232Z,10.44
2019-02-09T11:00:23.197Z,10.61
2019-02-09T11:01:31.367Z,10.61
2019-02-09T11:02:25.132Z,10.70
2019-02-09T11:03:23.068Z,10.84
2019-02-09T11:04:23.022Z,10.97
2019-02-09T11:05:23.141Z,10.92
2019-02-09T11:06:31.151Z,10.97
2019-02-09T11:07:22.996Z,10.91
2019-02-09T11:08:23.044Z,10.92
2019-02-09T11:09:25.055Z,10.99
2019-02-09T11:10:23.122Z,10.96
2019-02-09T11:11:23.059Z,10.89
2019-02-09T11:12:22.981Z,11.09
2019-02-09T11:13:22.920Z,11.10
2019-02-09T11:14:22.914Z,11.03
2019-02-09T11:15:22.925Z,10.96
2019-02-09T11:16:22.964Z,10.97
2019-02-09T11:19:23.974Z,11.00
2019-02-09T11:20:22.998Z,11.09
2019-02-09T11:21:22.889Z,11.11
2019-02-09T11:22:22.822Z,11.06
2019-02-09T11:24:23.922Z,11.17
2019-02-09T11:25:22.929Z,11.14
2019-02-09T11:26:24.831Z,11.21
2019-02-09T11:27:22.859Z,11.19
2019-02-09T11:28:22.831Z,11.21
2019-02-09T11:30:23.826Z,11.24
2019-02-09T11:31:22.812Z,11.27
2019-02-09T11:32:24.828Z,11.91
2019-02-09T11:33:23.751Z,11.55
2019-02-09T11:34:22.780Z,11.64
2019-02-09T11:35:30.933Z,11.73
2019-02-09T11:36:22.750Z,12.42
2019-02-09T11:37:22.731Z,11.94
2019-02-09T11:38:25.731Z,12.02
2019-02-09T11:39:22.725Z,11.60
2019-02-09T11:40:22.893Z,11.42
2019-02-09T11:41:22.725Z,11.46
2019-02-09T11:42:24.727Z,11.73
2019-02-09T11:43:22.653Z,11.55
2019-02-09T11:45:26.389Z,11.36
2019-02-09T11:46:22.584Z,11.21
2019-02-09T11:47:22.625Z,11.14
2019-02-09T11:48:22.589Z,11.06
2019-02-09T11:49:22.603Z,11.06
2019-02-09T11:51:25.523Z,11.06
2019-02-09T11:52:22.495Z,11.09
2019-02-09T11:55:23.628Z,11.00
2019-02-09T11:56:24.572Z,11.03
2019-02-09T11:57:22.493Z,10.99
2019-02-09T11:58:24.586Z,11.62
2019-02-09T12:00:23.585Z,11.51
2019-02-09T12:01:22.543Z,11.40
2019-02-09T12:04:23.748Z,11.21
2019-02-09T12:05:22.427Z,11.15
2019-02-09T12:06:40.479Z,11.33
2019-02-09T12:07:23.903Z,12.74
2019-02-09T12:09:23.619Z,12.77
2019-02-09T12:13:00.051Z,11.61
2019-02-09T12:14:59.085Z,11.65
2019-02-09T12:16:05.121Z,12.85
2019-02-09T12:17:59.865Z,11.78
2019-02-09T12:19:00.111Z,11.61
2019-02-09T12:19:58.025Z,11.52
2019-02-09T12:21:22.095Z,11.29
2019-02-09T12:21:58.055Z,11.15
2019-02-09T12:22:58.004Z,11.10
2019-02-09T12:23:58.052Z,11.06
2019-02-09T12:25:03.964Z,11.03
2019-02-09T12:25:58.075Z,10.89
2019-02-09T12:26:59.982Z,10.40
2019-02-09T12:29:59.173Z,9.94
2019-02-09T12:32:20.041Z,12.20
2019-02-09T12:32:58.067Z,13.66
2019-02-09T12:36:08.443Z,15.64
2019-02-09T12:37:08.372Z,15.96
2019-02-09T12:38:08.352Z,15.65
2019-02-09T12:39:08.344Z,15.38
2019-02-09T12:40:08.345Z,15.46
2019-02-09T12:41:10.405Z,14.35
2019-02-09T12:42:08.335Z,13.11
2019-02-09T12:44:09.372Z,11.55
2019-02-09T12:45:08.338Z,11.18
2019-02-09T12:46:08.351Z,11.06
2019-02-09T12:48:10.303Z,10.76
2019-02-09T12:49:08.363Z,10.61
2019-02-09T12:50:08.237Z,10.60
2019-02-09T12:51:08.271Z,10.67
2019-02-09T12:52:08.342Z,10.66
2019-02-09T12:53:08.249Z,10.61
2019-02-09T12:55:09.259Z,10.53
2019-02-09T12:56:08.196Z,10.48
2019-02-09T12:57:08.313Z,10.56
2019-02-09T12:58:10.235Z,11.09
2019-02-09T12:59:15.006Z,12.07
2019-02-09T13:00:08.198Z,11.54
2019-02-09T13:01:08.180Z,11.28
2019-02-09T13:02:09.947Z,11.14
2019-02-09T13:03:10.164Z,11.11
2019-02-09T13:04:08.106Z,11.10
2019-02-09T13:05:08.124Z,11.09
2019-02-09T13:07:09.195Z,10.88
2019-02-09T13:08:29.099Z,10.88
2019-02-09T13:09:08.049Z,10.96
2019-02-09T13:10:08.033Z,10.97
2019-02-09T13:12:09.169Z,10.81
2019-02-09T13:13:08.066Z,10.84
2019-02-09T13:14:12.044Z,10.82
2019-02-09T13:16:09.038Z,10.74
2019-02-09T13:17:08.085Z,10.64
2019-02-09T13:18:08.008Z,10.70
2019-02-09T13:20:09.049Z,10.56
2019-02-09T13:21:16.090Z,10.52
2019-02-09T13:22:13.962Z,10.53
2019-02-09T13:23:11.074Z,10.53
2019-02-09T13:24:17.101Z,10.44
2019-02-09T13:26:08.920Z,10.40
2019-02-09T13:27:07.865Z,10.41
2019-02-09T13:28:07.860Z,10.44
2019-02-09T13:29:07.835Z,10.40
2019-02-09T13:30:07.853Z,10.53
2019-02-09T13:32:08.911Z,10.59
2019-02-09T13:33:07.819Z,10.67
2019-02-09T13:34:07.820Z,10.64
2019-02-09T13:35:07.801Z,10.73
2019-02-09T13:36:09.840Z,10.67
2019-02-09T13:37:07.725Z,10.66
2019-02-09T13:38:07.764Z,10.67
2019-02-09T13:39:07.717Z,10.56
2019-02-09T13:40:07.702Z,10.63
2019-02-09T13:41:07.693Z,10.64
2019-02-09T13:42:09.775Z,10.70
2019-02-09T13:43:07.768Z,10.81
2019-02-09T13:44:30.751Z,10.88
2019-02-09T13:45:12.413Z,10.97
2019-02-09T13:46:07.687Z,11.07
2019-02-09T13:47:07.683Z,11.07
2019-02-09T13:48:11.879Z,10.94
2019-02-09T13:49:07.587Z,11.00
2019-02-09T13:50:09.654Z,11.00
2019-02-09T13:51:08.656Z,11.06
2019-02-09T13:54:50.777Z,10.97
2019-02-09T13:55:25.001Z,11.02
2019-02-09T13:56:26.617Z,11.00
2019-02-09T13:57:44.585Z,11.04
2019-02-09T13:58:24.021Z,11.09
2019-02-09T13:59:24.636Z,11.03
2019-02-09T14:00:23.554Z,11.14
2019-02-09T14:01:25.645Z,11.17
2019-02-09T14:04:26.531Z,11.19
2019-02-09T14:05:23.533Z,11.06
2019-02-09T14:07:47.131Z,11.04
2019-02-09T14:08:44.234Z,11.07
2019-02-09T14:09:44.195Z,11.17
2019-02-09T14:11:10.501Z,11.09
2019-02-09T14:14:55.863Z,11.15
2019-02-09T14:15:59.214Z,11.11
2019-02-09T14:16:54.855Z,11.10
2019-02-09T14:17:54.822Z,11.07
2019-02-09T14:18:54.786Z,11.15
2019-02-09T14:21:47.408Z,11.33
2019-02-09T14:22:47.246Z,11.25
2019-02-09T14:32:51.262Z,11.24
2019-02-09T14:33:55.237Z,11.27
2019-02-09T14:34:51.221Z,11.21
2019-02-09T14:35:51.249Z,11.24
2019-02-09T14:36:53.105Z,11.24
2019-02-09T14:37:53.217Z,11.17
2019-02-09T14:38:51.249Z,11.22
2019-02-09T14:39:53.138Z,11.22
2019-02-09T14:40:51.182Z,11.32
2019-02-09T14:41:59.427Z,11.33
2019-02-09T14:42:52.143Z,11.42
2019-02-09T14:43:53.218Z,11.32
2019-02-09T14:45:54.103Z,11.36
2019-02-09T14:48:52.744Z,11.27
2019-02-09T14:52:12.946Z,11.19
2019-02-09T14:52:51.001Z,11.24
2019-02-09T14:53:51.132Z,11.19
2019-02-09T14:54:56.237Z,11.17
2019-02-09T14:58:02.838Z,11.22
2019-02-09T14:59:10.597Z,11.28
2019-02-09T15:00:02.873Z,11.21
2019-02-09T15:02:53.860Z,11.21
2019-02-09T15:03:51.781Z,11.18
2019-02-09T15:04:50.696Z,11.18
2019-02-09T15:06:53.512Z,11.14
2019-02-09T15:07:50.619Z,11.09
2019-02-09T15:09:51.278Z,11.07
2019-02-09T15:10:48.651Z,11.10
2019-02-09T15:11:48.564Z,11.07
2019-02-09T15:12:50.654Z,11.09
2019-02-09T15:13:48.652Z,11.09
2019-02-09T15:15:53.514Z,11.15
2019-02-09T15:17:49.873Z,10.92
2019-02-09T15:18:50.619Z,10.97
2019-02-09T15:19:48.550Z,10.97
2019-02-09T15:20:48.502Z,10.92
2019-02-09T15:21:50.749Z,10.91
2019-02-09T15:22:48.524Z,10.96
2019-02-09T15:23:48.555Z,10.91
2019-02-09T15:24:50.257Z,10.81
2019-02-09T15:25:50.522Z,10.81
2019-02-09T15:27:49.764Z,10.84
2019-02-09T15:30:01.181Z,10.82
2019-02-09T15:31:00.323Z,10.85
2019-02-09T15:31:58.312Z,10.81
2019-02-09T15:33:00.248Z,10.81
2019-02-09T15:33:58.409Z,10.82
2019-02-09T15:34:58.321Z,10.71